createdAt,value
2019-03-29T00:00:50.329Z,5.33
2019-03-29T00:03:18.541Z,6.17
2019-03-29T00:05:46.937Z,5.80
2019-03-29T00:08:15.411Z,6.20
2019-03-29T00:10:43.789Z,6.10
2019-03-29T00:13:14.603Z,5.77
2019-03-29T00:15:41.799Z,5.83
2019-03-29T00:18:10.150Z,7.93
2019-03-29T00:20:38.558Z,6.10
2019-03-29T00:23:06.708Z,7.20
2019-03-29T00:25:34.842Z,8.13
2019-03-29T00:28:02.990Z,7.80
2019-03-29T00:30:31.137Z,7.37
2019-03-29T00:32:59.297Z,8.40
2019-03-29T00:35:27.461Z,7.60
2019-03-29T00:37:56.129Z,6.63
2019-03-29T00:40:24.235Z,7.53
2019-03-29T00:42:52.389Z,6.90
2019-03-29T00:45:20.525Z,7.10
2019-03-29T00:47:48.656Z,8.33
2019-03-29T00:50:16.804Z,7.70
2019-03-29T00:52:44.970Z,7.73
2019-03-29T00:55:13.531Z,8.00
2019-03-29T00:57:41.659Z,7.63
2019-03-29T01:00:11.080Z,8.77
2019-03-29T01:02:39.523Z,8.47
2019-03-29T01:05:08.010Z,7.27
2019-03-29T01:07:36.152Z,9.17
2019-03-29T01:10:05.435Z,9.60
2019-03-29T01:12:33.610Z,10.13
2019-03-29T01:15:01.753Z,8.87
2019-03-29T01:17:29.889Z,9.50
2019-03-29T01:19:58.293Z,9.77
2019-03-29T01:22:26.690Z,9.50
2019-03-29T01:24:54.842Z,10.40
2019-03-29T01:27:22.982Z,10.30
2019-03-29T01:29:51.381Z,10.33
2019-03-29T01:32:19.516Z,9.70
2019-03-29T01:34:47.656Z,10.50
2019-03-29T01:37:15.803Z,10.30
2019-03-29T01:39:43.959Z,10.70
2019-03-29T01:42:12.099Z,10.70
2019-03-29T01:44:40.237Z,10.00
2019-03-29T01:47:08.377Z,13.37
2019-03-29T01:49:36.532Z,11.60
2019-03-29T01:52:04.680Z,12.20
2019-03-29T01:54:32.822Z,11.73
2019-03-29T01:57:00.965Z,12.53
2019-03-29T01:59:29.131Z,12.60
2019-03-29T02:01:57.533Z,13.97
2019-03-29T02:04:25.929Z,13.10
2019-03-29T02:06:54.310Z,14.03
2019-03-29T02:09:22.464Z,13.90
2019-03-29T02:11:50.857Z,13.63
2019-03-29T02:14:19.073Z,14.93
2019-03-29T02:16:47.460Z,14.77
2019-03-29T02:19:15.861Z,13.40
2019-03-29T02:21:44.006Z,14.17
2019-03-29T02:24:12.220Z,13.23
2019-03-29T02:26:40.383Z,14.67
2019-03-29T02:29:08.775Z,13.83
2019-03-29T02:31:36.927Z,13.60
2019-03-29T02:34:05.082Z,14.20
2019-03-29T02:36:34.532Z,14.60
2019-03-29T02:39:04.174Z,14.30
2019-03-29T02:41:32.363Z,15.20
2019-03-29T02:44:00.497Z,13.60
2019-03-29T02:46:28.642Z,13.73
2019-03-29T02:48:57.047Z,14.70
2019-03-29T02:51:25.206Z,15.17
2019-03-29T02:53:53.611Z,15.40
2019-03-29T02:56:21.761Z,17.10
2019-03-29T02:58:49.893Z,16.60
2019-03-29T03:01:18.291Z,14.50
2019-03-29T03:03:46.701Z,16.90
2019-03-29T03:06:14.850Z,14.33
2019-03-29T03:08:42.997Z,16.37
2019-03-29T03:11:11.142Z,14.90
2019-03-29T03:13:39.542Z,16.20
2019-03-29T03:16:07.705Z,17.67
2019-03-29T03:18:35.850Z,15.20
2019-03-29T03:21:04.009Z,18.33
2019-03-29T03:23:32.220Z,16.93
2019-03-29T03:26:00.378Z,14.70
2019-03-29T03:28:28.521Z,16.63
2019-03-29T03:30:56.675Z,18.37
2019-03-29T03:33:24.823Z,17.43
2019-03-29T03:35:52.990Z,19.60
2019-03-29T03:38:21.126Z,20.87
2019-03-29T03:40:49.282Z,19.20
2019-03-29T03:43:17.702Z,18.67
2019-03-29T03:45:45.851Z,19.47
2019-03-29T03:48:14.001Z,19.87
2019-03-29T03:50:42.319Z,19.10
2019-03-29T03:53:10.729Z,20.10
2019-03-29T03:55:39.751Z,20.60
2019-03-29T03:58:08.664Z,18.37
2019-03-29T04:00:38.349Z,23.27
2019-03-29T04:03:06.544Z,22.10
2019-03-29T04:05:34.730Z,22.17
2019-03-29T04:08:02.872Z,22.30
2019-03-29T04:10:31.022Z,23.50
2019-03-29T04:12:59.176Z,24.07
2019-03-29T04:15:27.310Z,22.60
2019-03-29T04:17:55.490Z,24.65
2019-03-29T04:20:23.635Z,25.27
2019-03-29T04:22:51.774Z,22.70
2019-03-29T04:25:19.918Z,23.80
2019-03-29T04:27:48.322Z,25.12
2019-03-29T04:30:16.741Z,24.12
2019-03-29T04:32:44.888Z,25.47
2019-03-29T04:35:13.101Z,25.27
2019-03-29T04:37:41.267Z,24.60
2019-03-29T04:40:09.797Z,25.20
2019-03-29T04:42:38.251Z,24.80
2019-03-29T04:45:06.671Z,23.47
2019-03-29T04:47:34.781Z,24.82
2019-03-29T04:50:03.294Z,23.70
2019-03-29T04:52:31.651Z,27.50
2019-03-29T04:54:59.701Z,25.92
2019-03-29T04:57:27.837Z,28.80
2019-03-29T04:59:55.921Z,24.80
2019-03-29T05:02:24.017Z,26.82
2019-03-29T05:04:52.400Z,25.10
2019-03-29T05:07:20.817Z,24.90
2019-03-29T05:09:48.959Z,26.65
2019-03-29T05:12:17.055Z,25.03
2019-03-29T05:14:45.407Z,25.30
2019-03-29T05:17:13.500Z,23.70
2019-03-29T05:19:44.490Z,26.23
2019-03-29T05:22:11.413Z,25.30
2019-03-29T05:24:39.513Z,25.37
2019-03-29T05:27:07.626Z,26.55
2019-03-29T05:29:36.010Z,27.73
2019-03-29T05:32:04.135Z,28.35
2019-03-29T05:34:32.518Z,28.57
2019-03-29T05:37:00.714Z,28.12
2019-03-29T05:39:28.862Z,28.13
2019-03-29T05:41:56.997Z,29.63
2019-03-29T05:44:25.385Z,26.75
2019-03-29T05:46:53.530Z,27.80
2019-03-29T05:49:21.673Z,27.10
2019-03-29T05:51:49.809Z,28.97
2019-03-29T05:54:17.962Z,24.63
2019-03-29T05:56:46.407Z,24.65
2019-03-29T05:59:14.592Z,21.97
2019-03-29T06:01:42.989Z,22.17
2019-03-29T06:04:11.133Z,21.83
2019-03-29T06:06:39.522Z,21.07
2019-03-29T06:09:07.687Z,18.03
2019-03-29T06:11:35.816Z,18.67
2019-03-29T06:14:03.977Z,18.27
2019-03-29T06:16:38.903Z,18.17
2019-03-29T06:19:01.995Z,19.03
2019-03-29T06:21:30.158Z,19.87
2019-03-29T06:23:58.377Z,18.83
2019-03-29T06:26:26.771Z,17.90
2019-03-29T06:28:54.919Z,17.17
2019-03-29T06:31:23.042Z,16.43
2019-03-29T06:33:51.503Z,17.17
2019-03-29T06:36:19.696Z,17.73
2019-03-29T06:38:49.016Z,15.90
2019-03-29T06:41:17.225Z,17.40
2019-03-29T06:43:45.530Z,16.60
2019-03-29T06:46:13.651Z,15.97
2019-03-29T06:48:42.060Z,15.70
2019-03-29T06:51:10.168Z,13.93
2019-03-29T06:53:38.388Z,14.83
2019-03-29T06:56:06.542Z,13.77
2019-03-29T06:58:34.687Z,14.20
2019-03-29T07:01:02.835Z,15.60
2019-03-29T07:03:31.203Z,15.97
2019-03-29T07:05:59.325Z,16.40
2019-03-29T07:08:27.438Z,14.87
2019-03-29T07:10:55.605Z,16.10
2019-03-29T07:13:23.731Z,14.53
2019-03-29T07:15:51.897Z,17.27
2019-03-29T07:18:20.016Z,17.20
2019-03-29T07:20:48.133Z,16.10
2019-03-29T07:23:16.521Z,16.60
2019-03-29T07:25:44.641Z,16.63
2019-03-29T07:28:12.746Z,17.17
2019-03-29T07:30:40.865Z,17.30
2019-03-29T07:33:09.001Z,15.50
2019-03-29T07:35:37.381Z,16.73
2019-03-29T07:38:05.535Z,16.43
2019-03-29T07:40:33.657Z,15.10
2019-03-29T07:43:01.822Z,15.13
2019-03-29T07:45:29.942Z,14.97
2019-03-29T07:47:58.048Z,15.53
2019-03-29T07:50:26.430Z,14.93
2019-03-29T07:52:54.570Z,14.90
2019-03-29T07:55:22.998Z,15.20
2019-03-29T07:57:51.362Z,15.37
2019-03-29T08:00:20.516Z,14.03
2019-03-29T08:02:48.989Z,14.00
2019-03-29T08:05:17.942Z,12.33
2019-03-29T08:07:46.561Z,12.93
2019-03-29T08:10:25.771Z,11.67
2019-03-29T08:12:44.514Z,10.93
2019-03-29T08:15:12.878Z,12.30
2019-03-29T08:17:40.970Z,11.57
2019-03-29T08:20:37.498Z,11.90
2019-03-29T08:22:39.146Z,11.97
2019-03-29T08:25:07.709Z,11.57
2019-03-29T08:27:35.821Z,10.20
2019-03-29T08:30:04.896Z,9.97
2019-03-29T08:32:32.998Z,10.30
2019-03-29T08:35:01.358Z,9.70
2019-03-29T08:37:29.452Z,10.57
2019-03-29T08:39:57.786Z,10.33
2019-03-29T08:42:25.891Z,12.40
2019-03-29T08:44:54.249Z,10.90
2019-03-29T08:47:22.618Z,11.77
2019-03-29T08:49:50.793Z,11.80
2019-03-29T08:52:19.157Z,11.70
2019-03-29T08:54:51.003Z,10.50
2019-03-29T08:57:17.642Z,10.97
2019-03-29T08:59:46.126Z,10.77
2019-03-29T09:02:14.248Z,11.13
2019-03-29T09:04:42.382Z,10.73
2019-03-29T09:07:10.497Z,10.70
2019-03-29T09:09:38.590Z,11.00
2019-03-29T09:12:14.460Z,9.53
2019-03-29T09:14:37.037Z,9.73
2019-03-29T09:17:05.141Z,10.80
2019-03-29T09:19:33.489Z,9.30
2019-03-29T09:22:01.589Z,11.27
2019-03-29T09:24:29.681Z,9.57
2019-03-29T09:26:57.813Z,8.90
2019-03-29T09:29:25.913Z,8.73
2019-03-29T09:31:54.265Z,9.77
2019-03-29T09:34:22.630Z,9.07
2019-03-29T09:36:51.282Z,9.27
2019-03-29T09:39:19.765Z,8.67
2019-03-29T09:41:48.283Z,9.67
2019-03-29T09:44:16.686Z,9.33
2019-03-29T09:46:45.109Z,8.57
2019-03-29T09:49:13.770Z,8.23
2019-03-29T09:51:42.181Z,7.73
2019-03-29T09:54:10.583Z,7.73
2019-03-29T09:56:39.663Z,7.83
2019-03-29T09:59:08.452Z,8.60
2019-03-29T10:01:37.022Z,7.90
2019-03-29T10:04:05.783Z,7.27
2019-03-29T10:06:34.237Z,7.23
2019-03-29T10:09:02.899Z,7.40
2019-03-29T10:11:31.301Z,8.27
2019-03-29T10:13:59.710Z,7.63
2019-03-29T10:16:28.126Z,7.30
2019-03-29T10:18:57.627Z,6.47
2019-03-29T10:21:26.073Z,7.77
2019-03-29T10:23:54.493Z,7.20
2019-03-29T10:26:22.894Z,6.30
2019-03-29T10:28:51.309Z,5.80
2019-03-29T10:31:31.542Z,6.93
2019-03-29T10:33:50.070Z,6.60
2019-03-29T10:36:18.521Z,5.70
2019-03-29T10:38:46.940Z,6.73
2019-03-29T10:41:15.594Z,6.73
2019-03-29T10:43:44.300Z,6.50
2019-03-29T10:46:13.011Z,7.57
2019-03-29T10:48:41.430Z,8.23
2019-03-29T10:51:09.835Z,9.03
2019-03-29T10:53:38.261Z,7.87
2019-03-29T10:56:06.665Z,7.80
2019-03-29T10:58:35.330Z,7.27
2019-03-29T11:01:04.153Z,8.40
2019-03-29T11:03:32.565Z,7.87
2019-03-29T11:06:01.042Z,7.20
2019-03-29T11:08:29.486Z,6.60
2019-03-29T11:10:57.894Z,7.57
2019-03-29T11:13:26.317Z,7.07
2019-03-29T11:15:54.963Z,6.47
2019-03-29T11:18:23.370Z,7.30
2019-03-29T11:20:51.795Z,7.23
2019-03-29T11:23:20.217Z,6.47
2019-03-29T11:25:49.064Z,7.53
2019-03-29T11:28:17.694Z,6.63
2019-03-29T11:30:46.342Z,7.30
2019-03-29T11:33:15.016Z,6.37
2019-03-29T11:35:43.439Z,6.83
2019-03-29T11:38:11.869Z,6.50
2019-03-29T11:40:40.490Z,7.80
2019-03-29T11:43:08.950Z,7.27
2019-03-29T11:45:37.366Z,6.53
2019-03-29T11:48:08.711Z,6.03
2019-03-29T11:50:35.983Z,6.40
2019-03-29T11:53:04.393Z,6.40
2019-03-29T11:55:33.053Z,6.10
2019-03-29T11:58:01.476Z,5.90
2019-03-29T12:00:37.795Z,5.63
2019-03-29T12:03:09.174Z,5.33
2019-03-29T12:05:36.674Z,5.77
2019-03-29T12:08:05.550Z,5.20
2019-03-29T12:10:34.081Z,5.00
2019-03-29T12:13:02.498Z,4.93
2019-03-29T12:15:30.969Z,5.10
2019-03-29T12:17:59.438Z,5.20
2019-03-29T12:20:28.110Z,4.97
2019-03-29T12:22:56.765Z,5.07
2019-03-29T12:25:25.165Z,4.90
2019-03-29T12:27:53.814Z,6.40
2019-03-29T12:30:31.184Z,6.17
2019-03-29T12:32:52.769Z,6.90
2019-03-29T12:35:21.489Z,7.20
2019-03-29T12:37:50.156Z,7.07
2019-03-29T12:40:18.574Z,7.90
2019-03-29T12:42:46.978Z,7.67
2019-03-29T12:45:15.458Z,6.90
2019-03-29T12:47:43.882Z,7.67
2019-03-29T12:50:12.807Z,6.60
2019-03-29T12:52:41.286Z,7.33
2019-03-29T12:55:10.184Z,6.77
2019-03-29T12:57:39.402Z,7.60
2019-03-29T13:00:09.270Z,6.77
2019-03-29T13:02:37.704Z,6.90
2019-03-29T13:05:07.509Z,6.97
2019-03-29T13:07:35.922Z,6.73
2019-03-29T13:10:07.101Z,6.90
2019-03-29T13:12:35.505Z,6.97
2019-03-29T13:15:07.336Z,6.43
2019-03-29T13:17:35.741Z,6.33
2019-03-29T13:20:06.354Z,6.47
2019-03-29T13:22:35.048Z,7.70
2019-03-29T13:25:07.212Z,6.40
2019-03-29T13:27:34.614Z,6.77
2019-03-29T13:30:03.101Z,7.80
2019-03-29T13:32:33.356Z,7.40
2019-03-29T13:35:01.690Z,6.83
2019-03-29T13:37:30.493Z,6.70
2019-03-29T13:39:58.930Z,6.60
2019-03-29T13:42:27.329Z,5.73
2019-03-29T13:44:55.978Z,4.80
2019-03-29T13:47:24.670Z,5.47
2019-03-29T13:49:53.342Z,5.77
2019-03-29T13:52:21.749Z,5.17
2019-03-29T13:54:50.165Z,5.87
2019-03-29T13:57:18.567Z,6.20
2019-03-29T13:59:46.990Z,6.10
2019-03-29T14:02:15.413Z,6.50
2019-03-29T14:04:43.835Z,5.70
2019-03-29T14:07:12.484Z,5.77
2019-03-29T14:09:40.950Z,5.43
2019-03-29T14:12:09.360Z,6.87
2019-03-29T14:14:38.845Z,6.07
2019-03-29T14:17:07.389Z,5.70
2019-03-29T14:19:35.793Z,6.90
2019-03-29T14:22:04.432Z,5.43
2019-03-29T14:24:33.137Z,6.30
2019-03-29T14:27:01.798Z,7.33
2019-03-29T14:29:30.473Z,6.17
2019-03-29T14:31:58.893Z,8.07
2019-03-29T14:34:27.535Z,6.63
2019-03-29T14:36:59.191Z,6.40
2019-03-29T14:39:26.607Z,7.10
2019-03-29T14:41:55.060Z,7.00
2019-03-29T14:44:23.463Z,7.03
2019-03-29T14:46:52.150Z,7.10
2019-03-29T14:49:20.545Z,6.63
2019-03-29T14:51:48.968Z,6.83
2019-03-29T14:54:17.382Z,6.50
2019-03-29T14:56:45.805Z,6.93
2019-03-29T14:59:14.435Z,7.20
2019-03-29T15:01:42.888Z,7.23
2019-03-29T15:04:11.311Z,7.50
2019-03-29T15:06:39.729Z,7.27
2019-03-29T15:09:08.385Z,7.10
2019-03-29T15:11:36.810Z,7.47
2019-03-29T15:14:05.221Z,7.73
2019-03-29T15:16:33.890Z,7.37
2019-03-29T15:19:02.301Z,7.43
2019-03-29T15:21:30.971Z,7.30
2019-03-29T15:23:59.381Z,7.97
2019-03-29T15:26:28.048Z,9.60
2019-03-29T15:28:56.551Z,9.30
2019-03-29T15:31:25.203Z,9.87
2019-03-29T15:33:55.673Z,9.70
2019-03-29T15:36:24.328Z,10.80
2019-03-29T15:38:52.955Z,9.33
2019-03-29T15:41:21.401Z,8.80
2019-03-29T15:43:49.842Z,10.20
2019-03-29T15:46:18.489Z,9.10
2019-03-29T15:48:46.919Z,10.00
2019-03-29T15:51:15.609Z,9.20
2019-03-29T15:53:44.282Z,9.20
2019-03-29T15:56:12.737Z,8.63
2019-03-29T15:58:41.376Z,8.20
2019-03-29T16:01:09.905Z,10.00
2019-03-29T16:03:38.531Z,8.17
2019-03-29T16:06:06.977Z,8.43
2019-03-29T16:08:35.394Z,7.03
2019-03-29T16:11:03.806Z,6.70
2019-03-29T16:13:32.280Z,8.17
2019-03-29T16:16:00.682Z,8.60
2019-03-29T16:18:29.095Z,8.87
2019-03-29T16:20:57.538Z,7.40
2019-03-29T16:23:25.983Z,6.80
2019-03-29T16:25:54.419Z,7.73
2019-03-29T16:28:23.109Z,8.27
2019-03-29T16:30:51.791Z,6.77
2019-03-29T16:33:20.214Z,7.07
2019-03-29T16:35:48.899Z,7.03
2019-03-29T16:38:17.341Z,7.63
2019-03-29T16:40:45.783Z,6.63
2019-03-29T16:43:14.278Z,8.03
2019-03-29T16:45:48.219Z,7.43
2019-03-29T16:48:13.126Z,7.57
2019-03-29T16:50:41.576Z,6.40
2019-03-29T16:53:10.012Z,7.20
2019-03-29T16:55:38.452Z,7.53
2019-03-29T16:58:07.116Z,7.83
2019-03-29T17:00:35.664Z,7.10
2019-03-29T17:03:04.509Z,8.57
2019-03-29T17:05:32.944Z,6.37
2019-03-29T17:08:01.453Z,7.40
2019-03-29T17:10:29.935Z,6.90
2019-03-29T17:12:58.383Z,7.20
2019-03-29T17:15:26.809Z,6.47
2019-03-29T17:17:55.495Z,6.47
2019-03-29T17:20:23.926Z,7.37
2019-03-29T17:22:52.582Z,7.90
2019-03-29T17:25:21.057Z,6.77
2019-03-29T17:27:52.015Z,7.60
2019-03-29T17:30:34.783Z,7.60
2019-03-29T17:33:03.426Z,9.80
2019-03-29T17:35:31.890Z,10.63
2019-03-29T17:38:00.551Z,11.40
2019-03-29T17:40:29.135Z,11.60
2019-03-29T17:42:57.652Z,11.03
2019-03-29T17:45:26.062Z,12.27
2019-03-29T17:47:54.503Z,11.07
2019-03-29T17:50:25.314Z,10.70
2019-03-29T17:52:53.069Z,11.77
2019-03-29T17:55:21.486Z,10.73
2019-03-29T17:57:49.905Z,11.67
2019-03-29T18:00:20.229Z,12.37
2019-03-29T18:02:48.894Z,11.23
2019-03-29T18:05:17.320Z,10.77
2019-03-29T18:07:45.998Z,11.20
2019-03-29T18:10:14.429Z,11.30
2019-03-29T18:12:42.906Z,11.90
2019-03-29T18:15:11.651Z,11.40
2019-03-29T18:17:40.362Z,13.03
2019-03-29T18:20:09.726Z,11.60
2019-03-29T18:22:38.378Z,12.90
2019-03-29T18:25:07.246Z,12.13
2019-03-29T18:27:35.769Z,12.03
2019-03-29T18:30:07.547Z,12.07
2019-03-29T18:32:36.133Z,13.67
2019-03-29T18:35:07.061Z,11.97
2019-03-29T18:37:35.773Z,12.87
2019-03-29T18:40:06.080Z,13.70
2019-03-29T18:42:34.500Z,12.80
2019-03-29T18:45:03.760Z,13.07
2019-03-29T18:47:32.173Z,10.50
2019-03-29T18:50:00.616Z,12.77
2019-03-29T18:52:29.033Z,11.90
2019-03-29T18:54:57.460Z,11.70
2019-03-29T18:57:26.089Z,12.57
2019-03-29T18:59:54.552Z,12.87
2019-03-29T19:02:22.978Z,13.27
2019-03-29T19:04:51.409Z,13.13
2019-03-29T19:07:23.165Z,13.40
2019-03-29T19:09:51.800Z,12.50
2019-03-29T19:12:20.505Z,13.50
2019-03-29T19:14:48.937Z,13.60
2019-03-29T19:17:17.606Z,12.80
2019-03-29T19:19:46.278Z,13.53
2019-03-29T19:22:14.713Z,13.00
2019-03-29T19:24:43.117Z,14.43
2019-03-29T19:27:11.777Z,12.77
2019-03-29T19:29:40.418Z,13.40
2019-03-29T19:32:09.126Z,13.33
2019-03-29T19:34:37.794Z,13.87
2019-03-29T19:37:06.456Z,13.00
2019-03-29T19:39:35.119Z,12.93
2019-03-29T19:42:03.569Z,12.30
2019-03-29T19:44:32.001Z,13.03
2019-03-29T19:47:12.740Z,13.73
2019-03-29T19:49:30.586Z,12.90
2019-03-29T19:51:59.005Z,12.90
2019-03-29T19:54:27.433Z,13.50
2019-03-29T19:56:55.857Z,12.57
2019-03-29T19:59:24.355Z,13.67
2019-03-29T20:01:52.818Z,13.33
2019-03-29T20:04:21.278Z,13.10
2019-03-29T20:06:49.939Z,13.97
2019-03-29T20:09:18.397Z,14.33
2019-03-29T20:11:46.997Z,13.00
2019-03-29T20:14:15.413Z,13.87
2019-03-29T20:16:43.835Z,14.17
2019-03-29T20:19:12.277Z,13.67
2019-03-29T20:21:40.710Z,13.73
2019-03-29T20:24:09.125Z,14.23
2019-03-29T20:26:37.876Z,13.50
2019-03-29T20:29:06.312Z,14.77
2019-03-29T20:31:34.765Z,14.10
2019-03-29T20:34:03.432Z,14.23
2019-03-29T20:36:31.878Z,14.03
2019-03-29T20:39:00.302Z,14.33
2019-03-29T20:41:28.952Z,14.50
2019-03-29T20:43:57.418Z,13.70
2019-03-29T20:46:25.859Z,13.50
2019-03-29T20:48:54.281Z,13.70
2019-03-29T20:51:22.717Z,16.57
2019-03-29T20:53:51.132Z,14.00
2019-03-29T20:56:19.571Z,14.63
2019-03-29T20:58:47.994Z,14.57
2019-03-29T21:01:16.652Z,14.07
2019-03-29T21:03:45.116Z,16.07
2019-03-29T21:06:13.768Z,15.27
2019-03-29T21:08:42.232Z,15.17
2019-03-29T21:11:10.654Z,14.50
2019-03-29T21:13:39.126Z,15.73
2019-03-29T21:16:07.678Z,17.33
2019-03-29T21:18:36.315Z,16.93
2019-03-29T21:21:04.789Z,16.57
2019-03-29T21:23:33.462Z,15.57
2019-03-29T21:26:01.899Z,17.07
2019-03-29T21:28:30.568Z,17.77
2019-03-29T21:30:59.222Z,17.07
2019-03-29T21:33:27.689Z,15.63
2019-03-29T21:35:56.332Z,15.93
2019-03-29T21:38:24.798Z,15.70
2019-03-29T21:40:53.225Z,15.40
2019-03-29T21:43:21.615Z,14.20
2019-03-29T21:45:50.076Z,14.50
2019-03-29T21:48:28.459Z,14.87
2019-03-29T21:50:48.889Z,11.87
2019-03-29T21:53:17.309Z,15.17
2019-03-29T21:55:45.741Z,13.97
2019-03-29T21:58:14.169Z,14.00
2019-03-29T22:00:42.815Z,12.77
2019-03-29T22:03:11.517Z,12.20
2019-03-29T22:05:39.969Z,12.50
2019-03-29T22:08:08.399Z,12.70
2019-03-29T22:10:36.833Z,12.47
2019-03-29T22:13:05.265Z,13.40
2019-03-29T22:15:33.684Z,12.20
2019-03-29T22:18:02.116Z,13.10
2019-03-29T22:20:30.520Z,13.10
2019-03-29T22:22:59.213Z,12.70
2019-03-29T22:25:27.634Z,11.33
2019-03-29T22:27:56.653Z,11.37
2019-03-29T22:30:25.316Z,11.40
2019-03-29T22:32:53.949Z,15.17
2019-03-29T22:35:22.635Z,12.47
2019-03-29T22:37:51.117Z,11.12
2019-03-29T22:40:19.542Z,12.18
2019-03-29T22:42:47.988Z,12.87
2019-03-29T22:45:16.461Z,10.63
2019-03-29T22:47:44.893Z,10.77
2019-03-29T22:50:13.466Z,11.48
2019-03-29T22:52:41.910Z,11.27
2019-03-29T22:55:10.793Z,10.60
2019-03-29T22:57:39.279Z,11.03
2019-03-29T23:00:28.949Z,10.10
2019-03-29T23:02:57.557Z,10.30
2019-03-29T23:05:26.265Z,10.15
2019-03-29T23:07:55.059Z,10.53
2019-03-29T23:10:23.717Z,11.05
2019-03-29T23:12:52.280Z,11.17
2019-03-29T23:15:20.701Z,11.28
2019-03-29T23:17:49.377Z,10.23
2019-03-29T23:20:17.802Z,11.45
2019-03-29T23:22:46.238Z,10.93
2019-03-29T23:25:14.890Z,11.25
2019-03-29T23:27:43.357Z,10.50
2019-03-29T23:30:12.175Z,10.45
2019-03-29T23:32:40.641Z,11.17
2019-03-29T23:35:09.443Z,10.33
2019-03-29T23:37:38.085Z,11.77
2019-03-29T23:40:06.732Z,9.83
2019-03-29T23:42:35.157Z,11.03
2019-03-29T23:45:06.994Z,10.77
2019-03-29T23:47:35.441Z,9.83
2019-03-29T23:50:04.911Z,10.08
2019-03-29T23:52:33.348Z,12.18
2019-03-29T23:55:01.995Z,10.57
2019-03-29T23:57:30.681Z,11.33
2019-03-29T23:59:59.402Z,14.33
